createdAt,value
2022-12-23T00:01:07.813Z,5.36
2022-12-23T00:06:11.072Z,5.13
2022-12-23T00:11:16.913Z,5.12
2022-12-23T00:16:18.952Z,5.36
2022-12-23T00:21:22.075Z,5.38
2022-12-23T00:26:26.803Z,5.21
2022-12-23T00:31:28.829Z,5.23
2022-12-23T00:36:30.991Z,4.92
2022-12-23T00:41:53.269Z,5.09
2022-12-23T00:46:55.317Z,5.43
2022-12-23T00:51:57.751Z,5.50
2022-12-23T00:57:01.562Z,5.44
2022-12-23T01:02:22.794Z,5.36
2022-12-23T01:07:25.264Z,5.06
2022-12-23T01:12:28.585Z,5.35
2022-12-23T01:17:30.585Z,5.50
2022-12-23T01:22:32.540Z,5.65
2022-12-23T01:27:35.813Z,5.70
2022-12-23T01:32:37.784Z,5.42
2022-12-23T01:37:40.053Z,5.17
2022-12-23T01:42:43.432Z,5.34
2022-12-23T01:47:50.371Z,5.32
2022-12-23T01:53:07.836Z,5.34
2022-12-23T01:58:14.758Z,5.37
2022-12-23T02:03:35.411Z,5.37
2022-12-23T02:08:58.240Z,5.08
2022-12-23T02:14:36.220Z,5.25
2022-12-23T02:20:17.509Z,5.32
2022-12-23T02:25:46.116Z,5.37
2022-12-23T02:30:59.430Z,5.34
2022-12-23T02:36:15.117Z,5.12
2022-12-23T02:41:23.279Z,5.12
2022-12-23T02:46:32.704Z,5.28
2022-12-23T02:51:39.555Z,5.16
2022-12-23T02:56:46.825Z,5.04
2022-12-23T03:01:52.251Z,5.01
2022-12-23T03:06:56.922Z,4.88
2022-12-23T03:12:05.407Z,4.99
2022-12-23T03:17:20.794Z,5.03
2022-12-23T03:22:26.349Z,4.88
2022-12-23T03:27:34.029Z,4.69
2022-12-23T03:32:43.762Z,4.51
2022-12-23T03:37:49.892Z,4.43
2022-12-23T03:42:58.485Z,4.47
2022-12-23T03:48:06.015Z,4.60
2022-12-23T03:53:13.580Z,4.67
2022-12-23T03:58:24.635Z,4.60
2022-12-23T04:03:34.181Z,4.64
2022-12-23T04:08:38.433Z,4.58
2022-12-23T04:13:40.641Z,4.60
2022-12-23T04:18:43.973Z,4.50
2022-12-23T04:23:45.934Z,4.43
2022-12-23T04:28:47.868Z,4.45
2022-12-23T04:33:51.147Z,4.37
2022-12-23T04:38:53.092Z,4.50
2022-12-23T04:43:55.066Z,4.73
2022-12-23T04:48:58.367Z,4.91
2022-12-23T04:54:00.374Z,5.01
2022-12-23T04:59:04.192Z,4.94
2022-12-23T05:04:07.543Z,4.97
2022-12-23T05:09:09.940Z,4.96
2022-12-23T05:14:12.519Z,4.82
2022-12-23T05:19:15.891Z,5.14
2022-12-23T05:24:17.837Z,5.19
2022-12-23T05:29:19.810Z,5.39
2022-12-23T05:34:23.269Z,5.43
2022-12-23T05:39:25.233Z,5.34
2022-12-23T05:44:27.155Z,5.35
2022-12-23T05:49:30.438Z,5.31
2022-12-23T05:54:32.579Z,5.42
2022-12-23T05:59:34.549Z,5.57
2022-12-23T06:04:37.867Z,5.57
2022-12-23T06:09:39.814Z,5.56
2022-12-23T06:14:41.775Z,5.79
2022-12-23T06:19:45.113Z,5.65
2022-12-23T06:24:47.494Z,5.89
2022-12-23T06:29:49.453Z,6.03
2022-12-23T06:34:53.355Z,6.09
2022-12-23T06:39:55.382Z,6.24
2022-12-23T06:44:57.340Z,6.37
2022-12-23T06:50:01.723Z,6.37
2022-12-23T06:55:04.298Z,6.43
2022-12-23T07:00:07.308Z,6.51
2022-12-23T07:05:10.802Z,6.47
2022-12-23T07:10:13.006Z,6.52
2022-12-23T07:15:15.044Z,6.59
2022-12-23T07:20:18.434Z,6.53
2022-12-23T07:25:20.456Z,6.47
2022-12-23T07:30:22.615Z,6.67
2022-12-23T07:35:25.950Z,6.70
2022-12-23T07:40:28.070Z,6.66
2022-12-23T07:45:30.412Z,6.75
2022-12-23T07:50:33.921Z,6.59
2022-12-23T07:55:36.202Z,6.58
2022-12-23T08:00:38.366Z,6.49
2022-12-23T08:05:41.762Z,6.30
2022-12-23T08:10:48.287Z,6.33
2022-12-23T08:15:55.049Z,6.34
2022-12-23T08:21:00.161Z,6.53
2022-12-23T08:26:04.595Z,6.51
2022-12-23T08:31:09.234Z,6.60
2022-12-23T08:36:20.789Z,6.72
2022-12-23T08:41:27.323Z,6.78
2022-12-23T08:46:29.450Z,6.83
2022-12-23T08:51:33.028Z,6.80
2022-12-23T08:56:35.770Z,6.89
2022-12-23T09:01:37.849Z,6.91
2022-12-23T09:06:42.876Z,6.74
2022-12-23T09:11:44.988Z,7.02
2022-12-23T09:16:50.004Z,6.87
2022-12-23T09:21:53.297Z,7.03
2022-12-23T09:26:55.235Z,6.89
2022-12-23T09:31:57.302Z,7.03
2022-12-23T09:37:00.699Z,7.23
2022-12-23T09:42:07.976Z,7.04
2022-12-23T09:47:15.750Z,7.24
2022-12-23T09:52:25.492Z,7.49
2022-12-23T09:57:31.734Z,7.52
2022-12-23T10:02:43.121Z,7.58
2022-12-23T10:07:52.067Z,7.34
2022-12-23T10:12:56.391Z,7.70
2022-12-23T10:18:02.403Z,7.68
2022-12-23T10:23:11.256Z,7.94
2022-12-23T10:28:13.287Z,7.89
2022-12-23T10:33:20.529Z,7.82
2022-12-23T10:38:35.847Z,7.63
2022-12-23T10:43:54.033Z,7.60
2022-12-23T10:49:05.433Z,7.75
2022-12-23T10:54:11.441Z,7.96
2022-12-23T10:59:15.457Z,8.04
2022-12-23T11:04:23.804Z,7.96
2022-12-23T11:09:37.138Z,7.71
2022-12-23T11:14:41.689Z,7.83
2022-12-23T11:19:43.676Z,7.85
2022-12-23T11:24:46.980Z,8.12
2022-12-23T11:29:54.273Z,8.24
2022-12-23T11:34:56.742Z,8.21
2022-12-23T11:40:00.329Z,8.04
2022-12-23T11:45:07.151Z,8.00
2022-12-23T11:50:27.853Z,7.83
2022-12-23T11:55:32.914Z,7.95
2022-12-23T12:00:41.256Z,7.66
2022-12-23T12:05:49.669Z,7.94
2022-12-23T12:11:00.187Z,7.95
2022-12-23T12:16:16.319Z,7.67
2022-12-23T12:21:23.690Z,7.71
2022-12-23T12:26:30.637Z,7.68
2022-12-23T12:31:37.849Z,7.38
2022-12-23T12:36:47.637Z,7.49
2022-12-23T12:41:54.230Z,7.93
2022-12-23T12:47:15.974Z,7.82
2022-12-23T12:52:27.365Z,8.01
2022-12-23T12:57:34.322Z,7.75
2022-12-23T13:02:52.255Z,7.80
2022-12-23T13:08:11.817Z,7.69
2022-12-23T13:13:32.293Z,7.64
2022-12-23T13:18:43.290Z,7.62
2022-12-23T13:23:52.987Z,7.46
2022-12-23T13:29:08.224Z,7.47
2022-12-23T13:34:24.194Z,7.45
2022-12-23T13:39:42.067Z,7.40
2022-12-23T13:44:45.726Z,7.49
2022-12-23T13:50:01.639Z,7.42
2022-12-23T13:55:18.316Z,7.28
2022-12-23T14:00:29.030Z,7.11
2022-12-23T14:05:35.585Z,7.47
2022-12-23T14:10:39.065Z,7.40
2022-12-23T14:16:08.233Z,7.46
2022-12-23T14:21:23.361Z,7.34
2022-12-23T14:26:39.229Z,7.18
2022-12-23T14:31:44.497Z,7.17
2022-12-23T14:37:14.982Z,7.31
2022-12-23T14:42:34.481Z,7.29
2022-12-23T14:47:40.373Z,7.24
2022-12-23T14:52:49.880Z,7.35
2022-12-23T14:58:05.789Z,7.20
2022-12-23T15:03:12.133Z,7.21
2022-12-23T15:08:27.433Z,7.12
2022-12-23T15:13:30.982Z,7.06
2022-12-23T15:18:32.998Z,6.84
2022-12-23T15:23:36.510Z,6.87
2022-12-23T15:28:39.206Z,6.66
2022-12-23T15:39:09.653Z,6.82
2022-12-23T15:44:15.285Z,7.01
2022-12-23T15:49:19.176Z,6.87
2022-12-23T15:54:26.967Z,6.88
2022-12-23T15:59:32.908Z,6.89
2022-12-23T16:04:35.068Z,6.86
2022-12-23T16:09:38.454Z,6.77
2022-12-23T16:14:41.762Z,6.85
2022-12-23T16:19:46.701Z,6.99
2022-12-23T16:24:53.649Z,7.03
2022-12-23T16:29:57.481Z,6.94
2022-12-23T16:35:10.693Z,6.88
2022-12-23T16:40:15.752Z,6.72
2022-12-23T16:45:17.724Z,6.73
2022-12-23T16:50:19.978Z,6.98
2022-12-23T16:55:23.315Z,6.99
2022-12-23T17:00:25.326Z,6.88
2022-12-23T17:05:27.323Z,6.54
2022-12-23T17:10:30.638Z,6.82
2022-12-23T17:15:32.631Z,6.87
2022-12-23T17:20:34.709Z,6.81
2022-12-23T17:25:38.014Z,7.05
2022-12-23T17:30:40.975Z,7.13
2022-12-23T17:35:43.882Z,7.05
2022-12-23T17:40:48.139Z,6.96
2022-12-23T17:45:50.459Z,7.09
2022-12-23T17:50:52.518Z,7.19
2022-12-23T17:55:55.903Z,7.13
2022-12-23T18:00:57.911Z,7.06
2022-12-23T18:06:02.218Z,7.01
2022-12-23T18:11:06.889Z,7.02
2022-12-23T18:16:11.012Z,7.03
2022-12-23T18:21:17.319Z,6.68
2022-12-23T18:26:20.863Z,6.62
2022-12-23T18:31:24.339Z,6.56
2022-12-23T18:36:28.547Z,6.20
2022-12-23T18:41:31.940Z,6.30
2022-12-23T18:46:33.997Z,6.58
2022-12-23T18:51:36.081Z,6.34
2022-12-23T18:56:39.449Z,5.96
2022-12-23T19:01:41.481Z,5.74
2022-12-23T19:06:43.631Z,5.80
2022-12-23T19:11:48.603Z,5.66
2022-12-23T19:16:52.072Z,5.73
2022-12-23T19:21:54.787Z,5.79
2022-12-23T19:26:58.143Z,5.76
2022-12-23T19:32:00.413Z,5.88
2022-12-23T19:37:02.389Z,5.79
2022-12-23T19:42:05.743Z,5.96
2022-12-23T19:47:07.773Z,6.08
2022-12-23T19:52:10.068Z,6.17
2022-12-23T19:57:13.470Z,6.21
2022-12-23T20:02:16.637Z,6.25
2022-12-23T20:07:18.829Z,6.26
2022-12-23T20:12:22.189Z,6.28
2022-12-23T20:17:24.190Z,6.26
2022-12-23T20:22:26.194Z,6.29
2022-12-23T20:27:29.581Z,6.49
2022-12-23T20:32:31.561Z,6.55
2022-12-23T20:37:33.537Z,6.59
2022-12-23T20:42:37.116Z,6.69
2022-12-23T20:47:39.524Z,6.64
2022-12-23T20:52:41.618Z,6.55
2022-12-23T20:57:45.750Z,6.61
2022-12-23T21:02:47.796Z,6.58
2022-12-23T21:07:49.895Z,6.38
2022-12-23T21:12:53.221Z,6.34
2022-12-23T21:17:55.213Z,6.25
2022-12-23T21:22:57.240Z,6.24
2022-12-23T21:28:00.832Z,6.13
2022-12-23T21:33:03.558Z,6.10
2022-12-23T21:38:05.525Z,6.08
2022-12-23T21:43:09.147Z,5.98
2022-12-23T21:48:11.151Z,6.12
2022-12-23T21:53:13.394Z,6.14
2022-12-23T21:58:16.729Z,6.18
2022-12-23T22:03:18.763Z,6.07
2022-12-23T22:08:20.752Z,6.18
2022-12-23T22:13:25.158Z,6.16
2022-12-23T22:18:27.148Z,6.15
2022-12-23T22:23:29.128Z,6.20
2022-12-23T22:28:34.709Z,6.16
2022-12-23T22:33:36.721Z,6.17
2022-12-23T22:38:38.871Z,6.24
2022-12-23T22:43:42.223Z,6.16
2022-12-23T22:48:44.424Z,6.31
2022-12-23T22:53:46.894Z,6.39
2022-12-23T22:58:50.994Z,6.39
2022-12-23T23:03:57.331Z,6.36
2022-12-23T23:09:00.056Z,6.41
2022-12-23T23:14:04.210Z,6.38
2022-12-23T23:19:08.932Z,6.37
2022-12-23T23:24:11.939Z,6.30
2022-12-23T23:29:15.276Z,6.38
2022-12-23T23:34:17.268Z,6.47
2022-12-23T23:39:19.319Z,6.43
2022-12-23T23:44:22.662Z,6.51
2022-12-23T23:49:24.812Z,6.46
2022-12-23T23:54:26.944Z,6.30
2022-12-23T23:59:30.592Z,6.03
